< < Back
Terminal Aerodrome Forecast


Current Version              Previous Versions:   1  2  3  4  5  6  7  8  9  

Terminal Aerodrome Forecast

940
FTUS42 KILM 260500
TAFFLO
TAF
KFLO 260529Z 2606/2706 01010KT 4SM -RA BR BKN003 BKN010 OVC050
     FM261000 33013G20KT 6SM -RA BKN008 OVC015
     FM261700 30011KT P6SM BKN020 BKN100
     FM262200 28005KT P6SM FEW050=



Latest METAR

337
SAUS70 KWBC 261300 RRC
MTRFLO
METAR KFLO 261253Z 34017G26KT 2 1/2SM -RA BR OVC009 09/08 A2991 RMK AO2
PK WND 34027/1242 CIG 006V013 SLP125 P0002 T00940078


USA.gov is the U.S. government's official web portal to all federal, state and local government web resources and services.